createdAt,value
2022-12-11T00:01:45.310Z,99115.41
2022-12-11T00:06:50.862Z,99141.22
2022-12-11T00:11:53.268Z,99077.69
2022-12-11T00:16:55.804Z,99066.28
2022-12-11T00:21:58.221Z,99081.94
2022-12-11T00:27:00.689Z,99040.09
2022-12-11T00:32:03.046Z,99055.66
2022-12-11T00:37:05.425Z,99051.97
2022-12-11T00:42:09.419Z,99056.06
2022-12-11T00:47:11.784Z,99109.88
2022-12-11T00:52:14.323Z,99090.13
2022-12-11T00:57:16.725Z,99110.66
2022-12-11T01:02:19.081Z,99120.56
2022-12-11T01:07:21.483Z,99087.38
2022-12-11T01:12:23.952Z,99042.19
2022-12-11T01:17:26.222Z,99050.06
2022-12-11T01:22:28.494Z,99068.38
2022-12-11T01:27:30.792Z,99083.16
2022-12-11T01:32:33.290Z,99101.88
2022-12-11T01:37:35.872Z,99087.59
2022-12-11T01:42:38.251Z,99113.94
2022-12-11T01:47:40.876Z,99092.19
2022-12-11T01:52:45.547Z,99120.59
2022-12-11T01:57:50.485Z,99090.53
2022-12-11T02:02:52.844Z,99076.06
2022-12-11T02:07:59.744Z,99085.63
2022-12-11T02:13:14.981Z,99084.06
2022-12-11T02:18:20.083Z,99089.19
2022-12-11T02:23:46.281Z,99066.59
2022-12-11T02:28:56.417Z,99029.69
2022-12-11T02:34:23.187Z,99031.44
2022-12-11T02:39:27.493Z,99028.41
2022-12-11T02:44:32.648Z,98994.66
2022-12-11T02:49:36.051Z,99000.84
2022-12-11T02:54:41.836Z,98965.19
2022-12-11T02:59:45.957Z,99018.97
2022-12-11T03:04:48.531Z,98976.56
2022-12-11T03:09:51.521Z,99044.50
2022-12-11T03:14:54.413Z,99027.22
2022-12-11T03:20:02.667Z,99034.00
2022-12-11T03:25:10.682Z,99007.47
2022-12-11T03:30:19.450Z,99032.00
2022-12-11T03:35:31.895Z,99035.63
2022-12-11T03:40:37.594Z,98983.41
2022-12-11T03:45:41.713Z,98963.44
2022-12-11T03:50:44.896Z,99031.69
2022-12-11T03:55:50.034Z,98972.31
2022-12-11T04:00:52.483Z,99041.16
2022-12-11T04:05:56.436Z,99033.81
2022-12-11T04:11:17.344Z,99029.72
2022-12-11T04:16:19.707Z,99023.75
2022-12-11T04:21:40.599Z,99022.94
2022-12-11T04:26:45.454Z,99013.22
2022-12-11T04:31:47.912Z,99018.59
2022-12-11T04:36:50.949Z,98970.69
2022-12-11T04:41:53.350Z,98923.81
2022-12-11T04:46:55.720Z,98952.91
2022-12-11T04:51:58.015Z,98967.75
2022-12-11T04:57:00.498Z,98986.59
2022-12-11T05:02:02.922Z,98995.03
2022-12-11T05:07:05.261Z,98979.59
2022-12-11T05:12:07.765Z,99027.75
2022-12-11T05:17:10.130Z,99005.44
2022-12-11T05:22:12.517Z,99015.13
2022-12-11T05:27:14.973Z,98990.09
2022-12-11T05:32:17.346Z,98861.31
2022-12-11T05:37:19.733Z,98908.53
2022-12-11T05:42:28.550Z,98920.91
2022-12-11T05:47:32.174Z,99003.19
2022-12-11T05:52:34.574Z,98958.38
2022-12-11T05:57:36.846Z,99011.53
2022-12-11T06:02:39.254Z,99019.81
2022-12-11T06:07:41.594Z,98989.75
2022-12-11T06:12:43.980Z,99007.75
2022-12-11T06:17:46.287Z,98994.38
2022-12-11T06:22:49.066Z,99029.50
2022-12-11T06:27:51.602Z,98965.72
2022-12-11T06:32:53.914Z,98976.53
2022-12-11T06:37:56.481Z,98925.91
2022-12-11T06:42:58.765Z,98893.09
2022-12-11T06:48:01.058Z,98946.28
2022-12-11T06:53:04.397Z,98973.63
2022-12-11T06:58:06.730Z,98918.66
2022-12-11T07:03:10.714Z,98937.16
2022-12-11T07:08:13.040Z,98976.66
2022-12-11T07:13:15.517Z,99008.66
2022-12-11T07:18:17.860Z,99013.19
2022-12-11T07:23:20.199Z,98984.06
2022-12-11T07:28:22.553Z,98994.88
2022-12-11T07:33:24.879Z,98986.19
2022-12-11T07:38:27.451Z,98951.72
2022-12-11T07:43:30.003Z,98948.56
2022-12-11T07:48:32.831Z,98953.28
2022-12-11T07:53:35.172Z,98986.09
2022-12-11T07:58:39.625Z,98928.72
2022-12-11T08:03:43.172Z,99013.66
2022-12-11T08:08:47.426Z,98943.34
2022-12-11T08:13:50.475Z,99003.63
2022-12-11T08:18:54.464Z,98985.63
2022-12-11T08:23:57.349Z,98976.34
2022-12-11T08:29:01.444Z,98946.53
2022-12-11T08:34:04.078Z,98977.50
2022-12-11T08:39:06.565Z,98925.72
2022-12-11T08:44:16.600Z,98952.50
2022-12-11T08:49:19.711Z,98928.91
2022-12-11T08:54:22.239Z,98945.22
2022-12-11T08:59:26.135Z,98983.63
2022-12-11T09:04:28.739Z,98965.94
2022-12-11T09:09:31.325Z,98942.84
2022-12-11T09:14:33.843Z,98942.16
2022-12-11T09:19:36.310Z,98911.22
2022-12-11T09:24:40.050Z,98912.69
2022-12-11T09:29:42.423Z,98951.28
2022-12-11T09:34:45.403Z,98968.03
2022-12-11T09:39:48.003Z,98958.81
2022-12-11T09:45:03.507Z,98988.31
2022-12-11T09:50:12.038Z,98991.28
2022-12-11T09:55:18.239Z,98986.66
2022-12-11T10:00:40.335Z,98966.75
2022-12-11T10:05:48.456Z,98994.53
2022-12-11T10:11:28.648Z,98990.00
2022-12-11T10:16:44.768Z,98984.13
2022-12-11T10:21:50.031Z,98992.78
2022-12-11T10:26:58.928Z,98954.44
2022-12-11T10:32:02.099Z,98971.97
2022-12-11T10:37:04.595Z,98989.91
2022-12-11T10:42:19.655Z,99019.50
2022-12-11T10:47:22.101Z,99038.78
2022-12-11T12:40:07.323Z,98951.91
2022-12-11T12:45:30.328Z,98939.09
2022-12-11T12:50:40.920Z,98884.44
2022-12-11T12:55:44.720Z,98893.19
2022-12-11T13:00:47.935Z,98915.00
2022-12-11T13:06:11.596Z,98955.09
2022-12-11T13:11:17.050Z,98983.19
2022-12-11T13:16:19.366Z,99003.38
2022-12-11T13:21:28.659Z,99007.44
2022-12-11T13:26:33.290Z,98990.56
2022-12-11T13:31:40.594Z,98958.47
2022-12-11T13:36:49.396Z,98966.72
2022-12-11T13:42:22.793Z,99006.25
2022-12-11T13:47:26.326Z,98960.22
2022-12-11T13:52:29.145Z,98986.38
2022-12-11T13:57:31.615Z,98986.91
2022-12-11T14:02:43.093Z,99014.16
2022-12-11T14:07:52.440Z,99024.56
2022-12-11T14:13:02.579Z,99028.03
2022-12-11T14:18:06.210Z,99040.41
2022-12-11T14:23:18.661Z,99013.66
2022-12-11T14:28:22.121Z,99043.13
2022-12-11T14:33:31.763Z,99046.56
2022-12-11T14:39:00.277Z,99053.81
2022-12-11T14:44:07.111Z,99056.91
2022-12-11T14:49:22.820Z,99043.69
2022-12-11T14:54:51.799Z,99039.28
2022-12-11T14:59:55.616Z,99045.19
2022-12-11T15:05:18.725Z,99072.38
2022-12-11T15:10:27.633Z,99073.19
2022-12-11T15:15:33.446Z,99061.91
2022-12-11T15:20:35.954Z,99079.66
2022-12-11T15:25:38.387Z,99094.38
2022-12-11T15:30:41.083Z,99085.09
2022-12-11T15:35:55.131Z,99107.63
2022-12-11T15:40:58.344Z,99101.66
2022-12-11T15:46:02.888Z,99097.78
2022-12-11T15:51:05.819Z,99111.03
2022-12-11T15:56:13.769Z,99127.78
2022-12-11T16:01:16.122Z,99124.53
2022-12-11T16:06:18.439Z,99106.91
2022-12-11T16:11:20.741Z,99120.69
2022-12-11T16:16:23.088Z,99124.88
2022-12-11T16:21:25.408Z,99114.59
2022-12-11T16:26:27.709Z,99137.09
2022-12-11T16:31:30.068Z,99132.41
2022-12-11T16:36:32.541Z,99135.00
2022-12-11T16:41:34.869Z,99157.69
2022-12-11T16:46:38.067Z,99166.25
2022-12-11T16:51:40.514Z,99155.72
2022-12-11T16:56:43.154Z,99158.31
2022-12-11T17:01:45.834Z,99148.00
2022-12-11T17:06:49.105Z,99159.31
2022-12-11T17:11:51.503Z,99111.22
2022-12-11T17:16:53.896Z,99150.84
2022-12-11T17:21:57.496Z,99133.34
2022-12-11T17:27:00.291Z,99175.41
2022-12-11T17:32:03.745Z,99144.72
2022-12-11T17:37:06.537Z,99166.34
2022-12-11T17:42:08.930Z,99166.88
2022-12-11T17:47:12.579Z,99189.81
2022-12-11T17:52:15.017Z,99163.50
2022-12-11T17:57:17.447Z,99186.53
2022-12-11T18:02:19.840Z,99196.47
2022-12-11T18:07:23.059Z,99175.34
2022-12-11T18:12:25.452Z,99199.22
2022-12-11T18:17:27.993Z,99188.78
2022-12-11T18:22:30.295Z,99208.47
2022-12-11T18:27:32.518Z,99190.06
2022-12-11T18:32:35.310Z,99193.84
2022-12-11T18:37:38.440Z,99203.63
2022-12-11T18:42:40.679Z,99208.31
2022-12-11T18:47:42.951Z,99222.94
2022-12-11T18:52:45.487Z,99225.75
2022-12-11T18:57:48.819Z,99235.00
2022-12-11T19:02:53.120Z,99207.94
2022-12-11T19:07:55.390Z,99236.44
2022-12-11T19:12:57.905Z,99226.63
2022-12-11T19:18:00.379Z,99226.34
2022-12-11T19:23:02.834Z,99259.44
2022-12-11T19:28:05.744Z,99253.16
2022-12-11T19:33:07.969Z,99257.78
2022-12-11T19:38:10.435Z,99264.28
2022-12-11T19:43:12.736Z,99246.97
2022-12-11T19:48:15.337Z,99273.84
2022-12-11T19:53:17.660Z,99261.28
2022-12-11T19:58:20.557Z,99306.31
2022-12-11T20:03:22.915Z,99320.34
2022-12-11T20:08:44.205Z,99301.97
2022-12-11T20:13:51.013Z,99282.41
2022-12-11T20:18:55.145Z,99293.22
2022-12-11T20:23:57.675Z,99299.13
2022-12-11T20:28:59.925Z,99293.41
2022-12-11T20:34:02.722Z,99276.81
2022-12-11T20:39:05.584Z,99299.94
2022-12-11T20:44:08.085Z,99272.72
2022-12-11T20:49:13.354Z,99326.81
2022-12-11T20:54:15.585Z,99324.25
2022-12-11T20:59:18.155Z,99352.31
2022-12-11T21:04:20.425Z,99347.06
2022-12-11T21:09:26.042Z,99310.72
2022-12-11T21:14:29.522Z,99356.44
2022-12-11T21:19:31.781Z,99348.28
2022-12-11T21:24:34.547Z,99368.13
2022-12-11T21:29:36.823Z,99356.44
2022-12-11T21:34:39.079Z,99359.97
2022-12-11T21:39:41.330Z,99372.50
2022-12-11T21:50:06.397Z,99360.59
2022-12-11T21:55:09.147Z,99384.72
2022-12-11T22:00:12.312Z,99361.44
2022-12-11T22:05:14.981Z,99390.31
2022-12-11T22:10:17.409Z,99379.63
2022-12-11T22:15:20.101Z,99381.31
2022-12-11T22:20:22.505Z,99396.53
2022-12-11T22:25:25.126Z,99386.84
2022-12-11T22:30:27.727Z,99364.81
2022-12-11T22:35:30.140Z,99392.66
2022-12-11T22:40:32.581Z,99360.56
2022-12-11T22:45:39.784Z,99379.03
2022-12-11T22:50:42.426Z,99370.38
2022-12-11T22:55:44.710Z,99370.63
2022-12-11T23:00:47.523Z,99354.00
2022-12-11T23:05:49.950Z,99377.06
2022-12-11T23:10:52.888Z,99386.53
2022-12-11T23:15:55.141Z,99362.72
2022-12-11T23:20:57.835Z,99370.97
2022-12-11T23:26:00.372Z,99367.06
2022-12-11T23:31:02.959Z,99410.25
2022-12-11T23:36:05.852Z,99411.91
2022-12-11T23:41:10.651Z,99411.34
2022-12-11T23:46:16.539Z,99408.66
2022-12-11T23:51:21.031Z,99433.38
2022-12-11T23:56:26.728Z,99433.13
